Gore Bay Manitoulin Airport
CYZE : now visible

Airfield :











YOU CAN JOIN US ON...

 
LOGIN :

Register | Disclaimer

   EN    FR    IT 

 









Legend :    VFR   Marginal VFR   IFR   Intensive IFR   Very Intensive IFR
Visi :
Ceiling :
>= 8 km
>= 3000ft
5 to 8 km
1000 to 3000 ft
1500m to 5 km
500 to 1000 ft
800 to 1500m
200 to 500 ft
< 800m
< 200 ft
Symbols :   Thunderstorms  Fog  Heavy snow  Heavy precipitations  Wind > 20 kt






- Airport Elevation : 635 ft
- IATA code : YZE


CYZE - Gore Bay Manitoulin

CURRENT METAR :
  • 220712Z AUTO 32017G28KT 2 1/4SM -SN SCT009 SCT012 OVC019 01/M00 A2963 RMK VIS VRB 1 1/2-3 SLP041

EXPIRED METARs :
  • 220708Z AUTO 33018G26KT 3SM -RASN SCT009 BKN014 OVC019 01/M00 A2962 RMK PRESRR SLP040
  • 220658Z AUTO 31018G25KT 9SM -RA BKN009 BKN017 OVC035 02/01 A2961 RMK SLP036
  • 220648Z AUTO 30014G23KT 9SM -RA SCT009 BKN012 BKN020 OVC031 02/01 A2961 RMK SLP035
  • 220631Z AUTO 32016G28KT 9SM -RA -UP SCT014 BKN020 BKN030 OVC041 02/01 A2960 RMK SLP031
  • 220627Z AUTO 32019G28KT 9SM -RA BKN016 BKN027 OVC039 02/M00 A2960 RMK SLP030
  • 220600Z AUTO 32017G25KT 9SM -RA FEW016 SCT023 BKN029 OVC036 03/01 A2957 RMK SLP023
  • 220554Z AUTO 33020G25KT 9SM -RA SCT016 SCT024 OVC029 03/01 A2957 RMK SLP021
  • 220529Z AUTO 32017G25KT 9SM -RA SCT006 BKN010 BKN017 OVC031 04/02 A2955 RMK PRESRR SLP013
  • 220524Z AUTO 33016G29KT 280V340 7SM -RA BKN008 BKN012 OVC021 04/02 A2954 RMK SLP009
  • 220517Z AUTO 31020G29KT 3SM -RA BR BKN008 OVC012 04/03 A2953 RMK SLP008
  • 220500Z AUTO 28015G25KT 2SM -RA BR OVC008 03/03 A2952 RMK SLP004
  • 220447Z AUTO 28016G27KT 2 1/2SM -RA BR OVC008 04/03 A2952 RMK VIS VRB 1 1/2-3 SLP003
  • 220434Z AUTO 28017G25KT 3SM -RA BR OVC008 04/03 A2951 RMK SLP002

Expired Forecast.



MET'MAP, your aeronautical weather chart ! - Copyright ORBIFLY December 2007 - Disclaimer

ORBIFLY MET'MAP TEAM :

Programming & Development : Alexandra Zaïnal
Concept & Development : Baudouin d'Aumeries
Co-Development & Prog : Marc-Olivier Méhu
Technical & hardware support : Manuel Goepfert

Contact : metmap@orbifly.com




SOURCES & CREDITS :

   NOAA       Earth
Advisory